LFMK/CCF METAR and TAF weather

Enter ICAO airport designator
Station Type Date Time Source
LFMK METAR 2019/11/14 04:00 UTC NOAA

LFMK 140400Z AUTO 10005KT 060V190 9999 // ////// 05/03 Q1000


Station Type Date Time Source
LFMK Decoded METAR 2019/11/14 04:00 UTC NOAA

Carcassonne, France (LFMK) 43-13N 002-19E 130M
Nov 13, 2019 - 11:00 PM EST / 2019.11.14 0400 UTC
Wind: from the E (100 degrees) at 6 MPH (5 KT) (direction variable):0
Visibility: greater than 7 mile(s):0
Temperature: 41 F (5 C)
Dew Point: 37 F (3 C)
Relative Humidity: 86%
Pressure (altimeter): 29.53 in. Hg (1000 hPa)
ob: LFMK 140400Z AUTO 10005KT 060V190 9999 // ////// 05/03 Q1000
cycle: 4

Station Type Date Time Source
LFMK TAF 2019/11/14 03:47 UTC NOAA

TAF LFMK 140200Z 1403/1503 09005KT 9999 FEW030 BKN130
BECMG 1403/1406 28010KT BKN020
TEMPO 1404/1411 SHRA BKN014 SCT020CB
BECMG 1412/1415 NSW NSC

Example: see airport list